createdAt,value
2022-08-04T00:00:23.352Z,49.49
2022-08-04T00:03:14.975Z,50.15
2022-08-04T00:06:12.488Z,50.11
2022-08-04T00:08:43.672Z,51.04
2022-08-04T00:11:15.643Z,51.25
2022-08-04T00:14:02.879Z,50.83
2022-08-04T00:16:37.562Z,51.37
2022-08-04T00:19:11.903Z,50.75
2022-08-04T00:21:43.509Z,50.98
2022-08-04T00:24:13.087Z,52.33
2022-08-04T00:26:41.271Z,53.40
2022-08-04T00:29:08.678Z,53.65
2022-08-04T00:31:56.421Z,53.04
2022-08-04T00:34:29.238Z,54.16
2022-08-04T00:36:57.633Z,53.95
2022-08-04T00:39:25.777Z,53.67
2022-08-04T00:42:09.933Z,52.99
2022-08-04T00:44:56.127Z,53.07
2022-08-04T00:47:23.511Z,54.89
2022-08-04T00:49:59.651Z,55.20
2022-08-04T00:52:45.365Z,55.83
2022-08-04T00:55:32.454Z,56.22
2022-08-04T00:58:20.261Z,56.49
2022-08-04T01:01:20.154Z,56.28
2022-08-04T01:03:59.881Z,56.93
2022-08-04T01:06:50.951Z,57.27
2022-08-04T01:09:29.320Z,57.28
2022-08-04T01:12:07.863Z,57.21
2022-08-04T01:14:56.933Z,57.34
2022-08-04T01:17:38.347Z,57.58
2022-08-04T01:20:08.503Z,58.26
2022-08-04T01:23:10.106Z,58.25
2022-08-04T01:26:02.180Z,57.86
2022-08-04T01:29:11.022Z,57.72
2022-08-04T01:31:53.912Z,58.37
2022-08-04T01:34:23.481Z,58.39
2022-08-04T01:37:08.584Z,59.19
2022-08-04T01:39:58.264Z,59.55
2022-08-04T01:42:31.974Z,59.19
2022-08-04T01:45:05.664Z,59.17
2022-08-04T01:47:36.062Z,59.22
2022-08-04T01:50:08.540Z,59.01
2022-08-04T01:52:37.590Z,58.38
2022-08-04T01:55:07.328Z,59.67
2022-08-04T01:57:38.428Z,59.82
2022-08-04T02:00:07.277Z,60.04
2022-08-04T02:02:35.641Z,59.30
2022-08-04T02:05:03.255Z,58.98
2022-08-04T02:08:04.484Z,60.13
2022-08-04T02:10:51.376Z,60.53
2022-08-04T02:13:24.652Z,60.90
2022-08-04T02:16:02.898Z,60.71
2022-08-04T02:18:33.836Z,59.65
2022-08-04T02:21:02.134Z,60.87
2022-08-04T02:23:30.930Z,61.67
2022-08-04T02:26:03.664Z,62.32
2022-08-04T02:28:36.373Z,61.60
2022-08-04T02:31:23.952Z,60.75
2022-08-04T02:34:05.298Z,60.23
2022-08-04T02:36:42.930Z,60.95
2022-08-04T02:39:12.167Z,60.33
2022-08-04T02:41:40.339Z,61.49
2022-08-04T02:44:10.150Z,61.38
2022-08-04T02:46:39.104Z,61.53
2022-08-04T02:49:09.933Z,61.72
2022-08-04T02:51:41.342Z,61.88
2022-08-04T02:54:09.204Z,62.45
2022-08-04T02:56:38.617Z,62.61
2022-08-04T02:59:09.277Z,62.29
2022-08-04T03:01:37.452Z,62.82
2022-08-04T03:04:32.026Z,62.66
2022-08-04T03:07:14.394Z,61.96
2022-08-04T03:10:09.812Z,62.81
2022-08-04T03:13:21.810Z,63.24
2022-08-04T03:15:58.693Z,63.52
2022-08-04T03:18:43.393Z,63.57
2022-08-04T03:21:50.253Z,65.04
2022-08-04T03:24:23.418Z,64.89
2022-08-04T03:27:32.934Z,64.54
2022-08-04T03:30:07.274Z,63.81
2022-08-04T03:32:49.865Z,63.24
2022-08-04T03:35:54.146Z,64.26
2022-08-04T03:38:57.096Z,63.60
2022-08-04T03:41:51.639Z,63.75
2022-08-04T03:44:52.310Z,64.30
2022-08-04T03:47:44.227Z,63.23
2022-08-04T03:50:29.278Z,64.24
2022-08-04T03:53:15.043Z,64.37
2022-08-04T03:55:51.417Z,63.93
2022-08-04T03:58:36.763Z,62.95
2022-08-04T04:01:07.205Z,62.18
2022-08-04T04:04:02.894Z,61.78
2022-08-04T04:06:49.770Z,61.69
2022-08-04T04:09:48.488Z,60.77
2022-08-04T04:13:00.782Z,60.62
2022-08-04T04:15:50.356Z,61.15
2022-08-04T04:18:50.180Z,60.85
2022-08-04T04:21:34.244Z,62.16
2022-08-04T04:24:32.750Z,61.73
2022-08-04T04:27:19.415Z,62.48
2022-08-04T04:30:05.095Z,62.55
2022-08-04T04:32:54.733Z,62.91
2022-08-04T04:35:28.230Z,64.00
2022-08-04T04:38:20.897Z,63.17
2022-08-04T04:41:06.637Z,63.73
2022-08-04T04:43:51.106Z,65.19
2022-08-04T04:46:38.197Z,65.64
2022-08-04T04:49:29.176Z,64.75
2022-08-04T04:52:08.901Z,64.41
2022-08-04T04:54:39.215Z,64.62
2022-08-04T04:57:20.928Z,64.86
2022-08-04T05:00:13.358Z,64.62
2022-08-04T05:03:01.687Z,64.61
2022-08-04T05:05:30.640Z,64.09
2022-08-04T05:08:42.774Z,64.20
2022-08-04T05:11:24.527Z,64.66
2022-08-04T05:14:37.200Z,64.97
2022-08-04T05:16:55.036Z,67.14
2022-08-04T05:20:01.902Z,69.50
2022-08-04T05:22:54.224Z,69.19
2022-08-04T05:25:25.916Z,68.76
2022-08-04T05:28:00.966Z,67.41
2022-08-04T05:30:30.581Z,66.66
2022-08-04T05:33:05.027Z,65.36
2022-08-04T05:35:53.104Z,66.95
2022-08-04T05:38:24.088Z,66.21
2022-08-04T05:40:51.373Z,65.57
2022-08-04T05:43:19.425Z,66.13
2022-08-04T05:45:48.545Z,66.19
2022-08-04T05:48:16.766Z,65.72
2022-08-04T05:50:45.538Z,64.92
2022-08-04T05:53:13.853Z,66.80
2022-08-04T05:55:56.595Z,66.22
2022-08-04T05:58:30.432Z,65.49
2022-08-04T06:01:01.637Z,66.54
2022-08-04T06:03:32.023Z,67.22
2022-08-04T06:05:59.853Z,66.59
2022-08-04T06:08:29.366Z,62.37
2022-08-04T06:10:59.700Z,59.84
2022-08-04T06:13:49.648Z,60.54
2022-08-04T06:16:29.583Z,61.79
2022-08-04T06:20:00.958Z,60.44
2022-08-04T06:21:50.311Z,61.40
2022-08-04T06:24:23.857Z,60.54
2022-08-04T06:26:52.128Z,60.38
2022-08-04T06:29:28.185Z,59.10
2022-08-04T06:32:29.939Z,58.93
2022-08-04T06:34:46.702Z,58.13
2022-08-04T06:37:24.144Z,58.38
2022-08-04T06:40:31.007Z,58.81
2022-08-04T06:42:53.836Z,57.82
2022-08-04T06:45:21.475Z,58.75
2022-08-04T06:47:49.360Z,57.58
2022-08-04T06:51:30.525Z,57.22
2022-08-04T06:53:05.040Z,56.80
2022-08-04T06:55:33.731Z,56.88
2022-08-04T06:58:03.249Z,57.65
2022-08-04T07:00:32.304Z,59.80
2022-08-04T07:02:59.933Z,60.65
2022-08-04T07:05:27.486Z,60.52
2022-08-04T07:07:58.039Z,60.10
2022-08-04T07:10:29.985Z,57.87
2022-08-04T07:12:59.012Z,58.09
2022-08-04T07:15:27.252Z,57.36
2022-08-04T07:18:00.205Z,57.51
2022-08-04T07:20:34.846Z,57.18
2022-08-04T07:23:07.179Z,55.53
2022-08-04T07:25:58.628Z,55.21
2022-08-04T07:28:25.674Z,56.12
2022-08-04T07:30:54.157Z,55.79
2022-08-04T07:33:22.186Z,54.52
2022-08-04T07:36:09.243Z,56.29
2022-08-04T07:38:46.452Z,55.59
2022-08-04T07:41:35.897Z,55.82
2022-08-04T07:44:05.077Z,55.69
2022-08-04T07:46:32.513Z,55.09
2022-08-04T07:49:01.113Z,54.66
2022-08-04T07:51:30.536Z,56.94
2022-08-04T07:53:58.621Z,56.91
2022-08-04T07:56:26.850Z,57.73
2022-08-04T07:58:54.655Z,58.79
2022-08-04T08:01:25.676Z,59.34
2022-08-04T08:03:54.287Z,58.90
2022-08-04T08:06:32.443Z,58.23
2022-08-04T08:09:13.039Z,58.79
2022-08-04T08:12:37.069Z,59.62
2022-08-04T08:14:31.423Z,60.57
2022-08-04T08:17:00.243Z,60.79
2022-08-04T08:19:27.893Z,61.15
2022-08-04T08:21:59.267Z,61.65
2022-08-04T08:24:32.632Z,61.66
2022-08-04T08:27:00.554Z,62.49
2022-08-04T08:29:29.578Z,63.20
2022-08-04T08:32:01.371Z,64.16
2022-08-04T08:34:32.850Z,64.37
2022-08-04T08:37:07.927Z,66.95
2022-08-04T08:39:40.588Z,66.61
2022-08-04T08:42:46.929Z,67.89
2022-08-04T08:45:36.798Z,67.69
2022-08-04T08:48:38.084Z,67.66
2022-08-04T08:51:28.608Z,67.81
2022-08-04T08:54:34.020Z,66.23
2022-08-04T08:57:13.477Z,65.81
2022-08-04T09:00:08.851Z,66.61
2022-08-04T09:03:04.015Z,66.98
2022-08-04T09:05:57.131Z,67.43
2022-08-04T09:08:27.308Z,66.25
2022-08-04T09:10:56.170Z,66.45
2022-08-04T09:13:46.308Z,66.44
2022-08-04T09:16:37.094Z,66.24
2022-08-04T09:19:37.895Z,65.34
2022-08-04T09:22:29.889Z,64.65
2022-08-04T09:25:05.028Z,63.92
2022-08-04T09:27:44.363Z,63.12
2022-08-04T09:30:13.909Z,62.00
2022-08-04T09:32:50.536Z,62.70
2022-08-04T09:35:30.286Z,62.25
2022-08-04T09:38:06.825Z,61.94
2022-08-04T09:40:53.355Z,61.44
2022-08-04T09:43:59.095Z,60.35
2022-08-04T09:46:26.189Z,60.44
2022-08-04T09:48:59.046Z,62.15
2022-08-04T09:51:57.764Z,64.32
2022-08-04T09:54:45.459Z,64.00
2022-08-04T09:57:19.036Z,64.55
2022-08-04T09:59:55.191Z,64.07
2022-08-04T10:02:23.973Z,64.86
2022-08-04T10:04:53.393Z,64.22
2022-08-04T10:08:04.821Z,64.23
2022-08-04T10:10:54.866Z,63.30
2022-08-04T10:13:53.294Z,63.09
2022-08-04T10:16:20.518Z,64.18
2022-08-04T10:19:20.902Z,63.56
2022-08-04T10:22:30.993Z,62.89
2022-08-04T10:25:37.505Z,62.82
2022-08-04T10:28:21.633Z,62.01
2022-08-04T10:30:59.609Z,61.30
2022-08-04T10:33:50.647Z,60.93
2022-08-04T10:36:21.067Z,61.58
2022-08-04T10:39:00.298Z,61.97
2022-08-04T10:41:38.592Z,63.13
2022-08-04T10:44:42.098Z,62.32
2022-08-04T10:47:16.577Z,62.34
2022-08-04T10:49:46.881Z,61.39
2022-08-04T10:52:42.038Z,61.87
2022-08-04T10:55:18.359Z,61.03
2022-08-04T10:57:52.198Z,61.38
2022-08-04T11:00:27.086Z,60.26
2022-08-04T11:03:09.683Z,60.32
2022-08-04T11:05:44.330Z,60.23
2022-08-04T11:08:21.516Z,60.70
2022-08-04T11:10:56.789Z,59.65
2022-08-04T11:13:29.746Z,58.81
2022-08-04T11:15:59.523Z,59.42
2022-08-04T11:18:36.217Z,59.19
2022-08-04T11:21:10.095Z,58.84
2022-08-04T11:23:42.073Z,58.88
2022-08-04T11:26:13.593Z,58.87
2022-08-04T11:28:58.530Z,59.26
2022-08-04T11:31:44.711Z,57.94
2022-08-04T11:34:25.490Z,58.68
2022-08-04T11:37:31.515Z,58.20
2022-08-04T11:40:08.680Z,57.65
2022-08-04T11:42:41.675Z,57.93
2022-08-04T11:45:22.003Z,58.75
2022-08-04T11:48:01.947Z,57.49
2022-08-04T11:50:46.698Z,56.29
2022-08-04T11:53:19.802Z,57.61
2022-08-04T11:56:06.958Z,57.29
2022-08-04T11:58:35.907Z,57.11
2022-08-04T12:01:19.854Z,56.98
2022-08-04T12:04:29.685Z,55.70
2022-08-04T12:07:28.838Z,56.38
2022-08-04T12:10:03.865Z,55.79
2022-08-04T12:13:11.867Z,55.56
2022-08-04T12:15:49.317Z,54.46
2022-08-04T12:18:22.779Z,54.51
2022-08-04T12:20:58.051Z,53.08
2022-08-04T12:23:40.358Z,54.21
2022-08-04T12:26:11.062Z,53.71
2022-08-04T12:29:08.656Z,53.74
2022-08-04T12:31:38.915Z,53.01
2022-08-04T12:34:12.429Z,53.33
2022-08-04T12:36:43.302Z,53.47
2022-08-04T12:39:14.298Z,54.55
2022-08-04T12:42:05.053Z,53.15
2022-08-04T12:44:38.705Z,52.61
2022-08-04T12:47:27.775Z,52.42
2022-08-04T12:50:02.344Z,51.74
2022-08-04T12:53:06.393Z,50.77
2022-08-04T12:55:35.504Z,50.66
2022-08-04T12:58:14.217Z,50.80
2022-08-04T13:00:44.951Z,50.37
2022-08-04T13:03:15.011Z,49.65
2022-08-04T13:05:43.845Z,50.84
2022-08-04T13:08:12.246Z,50.46
2022-08-04T13:10:47.017Z,51.72
2022-08-04T13:13:19.842Z,51.08
2022-08-04T13:16:12.830Z,50.97
2022-08-04T13:18:49.917Z,50.92
2022-08-04T13:21:22.792Z,49.45
2022-08-04T13:24:20.413Z,50.26
2022-08-04T13:26:55.608Z,51.62
2022-08-04T13:30:25.246Z,50.75
2022-08-04T13:32:22.325Z,50.69
2022-08-04T13:34:53.013Z,50.32
2022-08-04T13:37:27.439Z,49.11
2022-08-04T13:39:56.519Z,48.05
2022-08-04T13:42:25.967Z,47.50
2022-08-04T13:44:56.595Z,46.72
2022-08-04T13:47:29.002Z,48.02
2022-08-04T13:50:11.644Z,49.27
2022-08-04T13:52:43.149Z,48.43
2022-08-04T13:55:22.530Z,47.99
2022-08-04T13:58:17.685Z,48.18
2022-08-04T14:01:06.964Z,47.76
2022-08-04T14:03:54.186Z,50.10
2022-08-04T14:06:27.183Z,49.41
2022-08-04T14:08:59.867Z,49.60
2022-08-04T14:12:09.378Z,50.09
2022-08-04T14:14:32.935Z,49.44
2022-08-04T14:17:20.016Z,48.88
2022-08-04T14:19:53.623Z,49.68
2022-08-04T14:22:27.098Z,49.14
2022-08-04T14:25:16.229Z,49.58
2022-08-04T14:27:55.057Z,48.78
2022-08-04T14:30:28.204Z,47.98
2022-08-04T14:34:02.713Z,47.13
2022-08-04T14:36:04.113Z,47.79
2022-08-04T14:39:01.626Z,48.25
2022-08-04T14:41:34.338Z,47.11
2022-08-04T14:44:03.756Z,46.33
2022-08-04T14:46:36.856Z,46.83
2022-08-04T14:49:12.686Z,46.83
2022-08-04T14:51:42.074Z,47.14
2022-08-04T14:54:17.217Z,46.59
2022-08-04T14:56:52.754Z,48.05
2022-08-04T14:59:20.315Z,48.32
2022-08-04T15:02:00.327Z,48.18
2022-08-04T15:04:31.512Z,47.47
2022-08-04T15:07:00.580Z,46.98
2022-08-04T15:09:33.203Z,46.07
2022-08-04T15:12:00.827Z,46.23
2022-08-04T15:14:36.870Z,46.17
2022-08-04T15:17:11.943Z,46.88
2022-08-04T15:19:41.340Z,46.77
2022-08-04T15:22:23.535Z,45.95
2022-08-04T15:24:54.895Z,45.83
2022-08-04T15:27:28.969Z,45.91
2022-08-04T15:30:02.831Z,46.52
2022-08-04T15:32:32.560Z,46.51
2022-08-04T15:35:06.893Z,46.37
2022-08-04T15:37:46.268Z,46.42
2022-08-04T15:40:33.079Z,47.26
2022-08-04T15:43:08.851Z,47.54
2022-08-04T15:46:34.990Z,48.19
2022-08-04T15:48:40.147Z,48.08
2022-08-04T15:51:14.198Z,48.44
2022-08-04T15:54:03.262Z,49.41
2022-08-04T15:56:30.149Z,49.72
2022-08-04T15:59:00.822Z,49.24
2022-08-04T16:01:28.301Z,48.92
2022-08-04T16:03:59.803Z,49.63
2022-08-04T16:06:29.546Z,50.20
2022-08-04T16:08:59.357Z,50.70
2022-08-04T16:11:30.915Z,52.08
2022-08-04T16:13:59.693Z,51.53
2022-08-04T16:16:44.759Z,51.03
2022-08-04T16:19:36.983Z,51.37
2022-08-04T16:22:04.796Z,51.07
2022-08-04T16:24:41.667Z,52.79
2022-08-04T16:27:10.078Z,52.88
2022-08-04T16:29:42.603Z,53.50
2022-08-04T16:32:11.876Z,54.36
2022-08-04T16:34:48.312Z,54.36
2022-08-04T16:37:19.445Z,55.20
2022-08-04T16:39:50.063Z,54.89
2022-08-04T16:42:28.685Z,54.52
2022-08-04T16:45:14.524Z,55.96
2022-08-04T16:47:47.722Z,55.49
2022-08-04T16:50:22.732Z,55.46
2022-08-04T16:52:52.888Z,55.70
2022-08-04T16:55:21.661Z,56.75
2022-08-04T16:57:49.946Z,56.92
2022-08-04T17:00:18.568Z,56.61
2022-08-04T17:02:46.252Z,58.04
2022-08-04T17:05:39.793Z,58.60
2022-08-04T17:10:56.662Z,59.55
2022-08-04T17:14:02.847Z,59.86
2022-08-04T17:16:38.503Z,59.60
2022-08-04T17:19:25.067Z,57.99
2022-08-04T17:22:04.615Z,59.15
2022-08-04T17:24:34.797Z,58.18
2022-08-04T17:27:04.243Z,57.99
2022-08-04T17:29:42.812Z,57.26
2022-08-04T17:32:19.692Z,56.96
2022-08-04T17:34:58.642Z,57.02
2022-08-04T17:37:40.087Z,57.23
2022-08-04T17:40:18.261Z,57.59
2022-08-04T17:44:03.548Z,58.06
2022-08-04T17:46:28.136Z,60.04
2022-08-04T17:49:05.738Z,61.21
2022-08-04T17:52:06.892Z,60.53
2022-08-04T17:54:40.332Z,60.46
2022-08-04T17:57:20.388Z,60.53
2022-08-04T17:59:57.959Z,59.16
2022-08-04T18:02:33.192Z,60.22
2022-08-04T18:05:11.615Z,60.81
2022-08-04T18:08:45.414Z,60.56
2022-08-04T18:10:54.599Z,59.69
2022-08-04T18:13:27.372Z,59.77
2022-08-04T18:16:03.108Z,59.21
2022-08-04T18:18:30.776Z,60.91
2022-08-04T18:20:59.890Z,61.58
2022-08-04T18:23:31.315Z,61.44
2022-08-04T18:26:02.424Z,63.74
2022-08-04T18:28:33.451Z,63.95
2022-08-04T18:31:02.347Z,63.85
2022-08-04T18:33:37.850Z,64.03
2022-08-04T18:36:34.060Z,62.65
2022-08-04T18:39:13.188Z,62.61
2022-08-04T18:42:01.384Z,60.78
2022-08-04T18:44:32.368Z,60.44
2022-08-04T18:47:19.675Z,59.94
2022-08-04T18:50:32.704Z,61.05
2022-08-04T18:52:36.453Z,60.63
2022-08-04T18:55:55.262Z,61.49
2022-08-04T18:58:07.701Z,61.42
2022-08-04T19:00:45.761Z,61.25
2022-08-04T19:03:16.627Z,60.32
2022-08-04T19:05:51.306Z,58.90
2022-08-04T19:08:33.040Z,58.66
2022-08-04T19:11:36.862Z,59.31
2022-08-04T19:13:54.767Z,60.27
2022-08-04T19:16:30.452Z,60.89
2022-08-04T19:19:00.462Z,60.89
2022-08-04T19:22:00.107Z,61.66
2022-08-04T19:24:31.546Z,62.29
2022-08-04T19:27:07.023Z,61.39
2022-08-04T19:29:40.549Z,60.77
2022-08-04T19:32:14.097Z,61.19
2022-08-04T19:34:47.612Z,62.10
2022-08-04T19:37:58.368Z,61.72
2022-08-04T19:40:09.641Z,61.77
2022-08-04T19:42:37.802Z,61.97
2022-08-04T19:45:06.242Z,61.30
2022-08-04T19:48:16.992Z,63.76
2022-08-04T19:53:19.594Z,63.82
2022-08-04T19:55:49.821Z,64.26
2022-08-04T19:58:17.793Z,64.65
2022-08-04T20:04:09.558Z,65.83
2022-08-04T20:06:19.637Z,65.61
2022-08-04T20:08:48.682Z,65.41
2022-08-04T20:11:16.691Z,66.74
2022-08-04T20:13:54.285Z,66.10
2022-08-04T20:16:29.741Z,64.42
2022-08-04T20:19:03.153Z,63.51
2022-08-04T20:21:54.213Z,63.13
2022-08-04T20:24:39.974Z,62.54
2022-08-04T20:27:14.931Z,61.70
2022-08-04T20:29:58.449Z,62.34
2022-08-04T20:32:29.401Z,62.08
2022-08-04T20:34:57.502Z,61.09
2022-08-04T20:37:26.730Z,60.95
2022-08-04T20:40:14.644Z,60.77
2022-08-04T20:42:46.282Z,61.27
2022-08-04T20:45:16.113Z,62.07
2022-08-04T20:47:45.918Z,61.90
2022-08-04T20:50:30.166Z,61.13
2022-08-04T20:52:58.649Z,61.03
2022-08-04T20:55:29.410Z,60.91
2022-08-04T20:58:03.403Z,60.33
2022-08-04T21:00:31.799Z,60.00
2022-08-04T21:02:59.854Z,60.57
2022-08-04T21:05:27.430Z,60.86
2022-08-04T21:07:57.098Z,59.93
2022-08-04T21:10:25.754Z,59.54
2022-08-04T21:12:54.202Z,59.06
2022-08-04T21:15:25.545Z,59.13
2022-08-04T21:17:57.867Z,58.57
2022-08-04T21:23:18.277Z,59.80
2022-08-04T21:25:50.964Z,59.81
2022-08-04T21:28:20.345Z,59.43
2022-08-04T21:30:52.704Z,58.85
2022-08-04T21:33:22.871Z,58.70
2022-08-04T21:35:54.506Z,58.86
2022-08-04T21:38:27.850Z,58.75
2022-08-04T21:40:56.961Z,58.45
2022-08-04T21:43:27.269Z,57.72
2022-08-04T21:45:55.871Z,57.46
2022-08-04T21:48:27.676Z,57.61
2022-08-04T21:50:55.304Z,57.86
2022-08-04T21:53:22.686Z,57.84
2022-08-04T21:56:05.010Z,58.15
2022-08-04T21:58:37.658Z,59.32
2022-08-04T22:01:12.961Z,61.40
2022-08-04T22:03:52.485Z,63.64
2022-08-04T22:06:28.109Z,64.16
2022-08-04T22:08:57.025Z,64.90
2022-08-04T22:11:48.625Z,65.15
2022-08-04T22:14:18.045Z,64.51
2022-08-04T22:16:58.461Z,64.36
2022-08-04T22:19:39.561Z,64.83
2022-08-04T22:22:09.484Z,65.35
2022-08-04T22:24:39.848Z,66.67
2022-08-04T22:27:37.478Z,66.23
2022-08-04T22:30:10.534Z,66.61
2022-08-04T22:32:47.062Z,66.62
2022-08-04T22:35:30.988Z,66.80
2022-08-04T22:38:05.829Z,67.50
2022-08-04T22:40:41.083Z,66.61
2022-08-04T22:43:32.090Z,65.31
2022-08-04T22:45:55.692Z,64.19
2022-08-04T22:48:23.095Z,62.88
2022-08-04T22:50:55.137Z,62.74
2022-08-04T22:53:22.344Z,62.48
2022-08-04T22:56:06.855Z,63.01
2022-08-04T22:58:37.080Z,62.40
2022-08-04T23:01:08.867Z,62.47
2022-08-04T23:03:38.441Z,62.89
2022-08-04T23:06:07.206Z,64.87
2022-08-04T23:08:43.149Z,65.39
2022-08-04T23:11:14.770Z,67.62
2022-08-04T23:13:42.246Z,68.21
2022-08-04T23:16:09.717Z,69.30
2022-08-04T23:18:42.181Z,70.52
2022-08-04T23:21:14.036Z,69.76
2022-08-04T23:23:55.287Z,71.03
2022-08-04T23:26:29.151Z,70.41
2022-08-04T23:28:56.517Z,70.57
2022-08-04T23:31:24.713Z,73.67
2022-08-04T23:33:52.506Z,76.88
2022-08-04T23:36:29.398Z,77.77
2022-08-04T23:39:05.857Z,78.37
2022-08-04T23:41:53.952Z,78.75
2022-08-04T23:44:24.980Z,77.95
2022-08-04T23:47:03.864Z,78.95
2022-08-04T23:49:40.803Z,80.39
2022-08-04T23:52:27.990Z,82.23
2022-08-04T23:54:58.833Z,82.63
2022-08-04T23:57:30.906Z,82.89
